Washington, District of Columbia
Traffic Map
Current Weather Conditions
Washington, District of Columbia
Broken Clouds
Broken Clouds
72°
Feels Like: 72°
Wind Chill: 72° Ceiling: 25000
Heat Index: 72° Visibility: 10mi
Dew Point: 63° Wind: 8mph
Humidity: 73% Direction: 170° (S)
Pressure: 30.04in Gusts: 0mph
Raw Report DataKDCA 270552Z 17007KT 10SM BKN250 22/17 A3004 RMK AO2 SLP172 T02220172 10272 20222 56001
Traffic Incident Summary
Active as of:
Severity:
Category:
InformationThere was an issue retrieving the traffic information for this location. Please try a different location or try again shortly.
Advertisements
Track Severe Weather on mobile